sensor_id;sensor_type;location;lat;lon;timestamp;pressure;altitude;pressure_sealevel;temperature;humidity
9525;BME280;15940;48.734;9.112;2023-03-04T00:01:54;97043.88;;;1.14;77.97
9525;BME280;15940;48.734;9.112;2023-03-04T00:04:21;97039.00;;;1.09;78.46
9525;BME280;15940;48.734;9.112;2023-03-04T00:06:47;97047.13;;;1.02;78.51
9525;BME280;15940;48.734;9.112;2023-03-04T00:09:14;97048.09;;;1.12;77.92
9525;BME280;15940;48.734;9.112;2023-03-04T00:11:41;97053.63;;;1.21;77.70
9525;BME280;15940;48.734;9.112;2023-03-04T00:14:09;97037.41;;;1.12;77.61
9525;BME280;15940;48.734;9.112;2023-03-04T00:16:36;97036.13;;;1.00;77.55
9525;BME280;15940;48.734;9.112;2023-03-04T00:19:03;97040.63;;;1.03;77.30
9525;BME280;15940;48.734;9.112;2023-03-04T00:21:30;97037.44;;;0.92;77.77
9525;BME280;15940;48.734;9.112;2023-03-04T00:23:57;97034.22;;;1.01;78.19
9525;BME280;15940;48.734;9.112;2023-03-04T00:26:24;97038.50;;;0.95;77.97
9525;BME280;15940;48.734;9.112;2023-03-04T00:28:51;97038.66;;;0.88;77.93
9525;BME280;15940;48.734;9.112;2023-03-04T00:31:19;97038.94;;;0.93;77.46
9525;BME280;15940;48.734;9.112;2023-03-04T00:33:46;97035.47;;;0.96;79.60
9525;BME280;15940;48.734;9.112;2023-03-04T00:36:13;97042.53;;;0.83;78.80
9525;BME280;15940;48.734;9.112;2023-03-04T00:38:40;97036.41;;;0.86;78.55
9525;BME280;15940;48.734;9.112;2023-03-04T00:41:07;97040.09;;;0.92;78.67
9525;BME280;15940;48.734;9.112;2023-03-04T00:43:34;97044.00;;;1.07;78.78
9525;BME280;15940;48.734;9.112;2023-03-04T00:46:01;97036.41;;;1.06;78.28
9525;BME280;15940;48.734;9.112;2023-03-04T00:48:29;97044.13;;;1.00;77.60
9525;BME280;15940;48.734;9.112;2023-03-04T00:50:56;97041.03;;;0.82;78.17
9525;BME280;15940;48.734;9.112;2023-03-04T00:53:23;97044.75;;;0.68;78.31
9525;BME280;15940;48.734;9.112;2023-03-04T00:55:50;97042.84;;;0.89;78.88
9525;BME280;15940;48.734;9.112;2023-03-04T00:58:16;97044.25;;;0.73;79.00
9525;BME280;15940;48.734;9.112;2023-03-04T01:00:43;97045.53;;;0.65;78.76
9525;BME280;15940;48.734;9.112;2023-03-04T01:03:10;97039.75;;;0.70;78.54
9525;BME280;15940;48.734;9.112;2023-03-04T01:05:38;97043.56;;;0.69;78.96
9525;BME280;15940;48.734;9.112;2023-03-04T01:08:05;97028.41;;;0.86;77.98
9525;BME280;15940;48.734;9.112;2023-03-04T01:10:33;97027.72;;;0.82;78.38
9525;BME280;15940;48.734;9.112;2023-03-04T01:13:00;97035.50;;;0.73;78.13
9525;BME280;15940;48.734;9.112;2023-03-04T01:15:27;97038.50;;;0.75;78.80
9525;BME280;15940;48.734;9.112;2023-03-04T01:17:54;97026.06;;;0.68;78.24
9525;BME280;15940;48.734;9.112;2023-03-04T01:20:21;97034.88;;;0.65;78.77
9525;BME280;15940;48.734;9.112;2023-03-04T01:22:50;97029.72;;;0.54;78.11
9525;BME280;15940;48.734;9.112;2023-03-04T01:25:17;97026.09;;;0.45;79.01
9525;BME280;15940;48.734;9.112;2023-03-04T01:27:44;97016.72;;;0.37;78.65
9525;BME280;15940;48.734;9.112;2023-03-04T01:30:11;97018.63;;;0.36;79.32
9525;BME280;15940;48.734;9.112;2023-03-04T01:32:38;97024.56;;;0.24;79.63
9525;BME280;15940;48.734;9.112;2023-03-04T01:35:06;97021.81;;;0.27;79.58
9525;BME280;15940;48.734;9.112;2023-03-04T01:37:33;97020.69;;;0.28;79.49
9525;BME280;15940;48.734;9.112;2023-03-04T01:40:02;97008.72;;;0.37;79.96
9525;BME280;15940;48.734;9.112;2023-03-04T01:42:33;97022.53;;;0.32;79.37
9525;BME280;15940;48.734;9.112;2023-03-04T01:45:02;97027.41;;;0.13;78.71
9525;BME280;15940;48.734;9.112;2023-03-04T01:47:32;97017.91;;;0.12;79.53
9525;BME280;15940;48.734;9.112;2023-03-04T01:50:03;97023.22;;;0.12;80.62
9525;BME280;15940;48.734;9.112;2023-03-04T01:52:31;97007.53;;;0.18;79.67
9525;BME280;15940;48.734;9.112;2023-03-04T01:54:58;97018.81;;;0.25;78.86
9525;BME280;15940;48.734;9.112;2023-03-04T01:57:27;97012.81;;;0.21;79.11
9525;BME280;15940;48.734;9.112;2023-03-04T02:00:27;97015.50;;;0.18;79.67
9525;BME280;15940;48.734;9.112;2023-03-04T02:02:59;96999.72;;;0.31;80.00
9525;BME280;15940;48.734;9.112;2023-03-04T02:05:27;97015.28;;;0.32;79.39
9525;BME280;15940;48.734;9.112;2023-03-04T02:07:55;97011.06;;;0.11;78.35
9525;BME280;15940;48.734;9.112;2023-03-04T02:10:23;97012.84;;;0.18;80.65
9525;BME280;15940;48.734;9.112;2023-03-04T02:12:52;97012.81;;;0.21;79.02
9525;BME280;15940;48.734;9.112;2023-03-04T02:15:20;96996.41;;;-0.01;78.86
9525;BME280;15940;48.734;9.112;2023-03-04T02:17:47;97007.59;;;-0.09;79.37
9525;BME280;15940;48.734;9.112;2023-03-04T02:20:38;97002.53;;;-0.04;80.38
9525;BME280;15940;48.734;9.112;2023-03-04T02:23:14;97004.22;;;-0.13;80.74
9525;BME280;15940;48.734;9.112;2023-03-04T02:25:49;96998.47;;;-0.35;79.34
9525;BME280;15940;48.734;9.112;2023-03-04T02:28:18;97003.81;;;-0.39;79.87
9525;BME280;15940;48.734;9.112;2023-03-04T02:30:46;96995.16;;;-0.19;80.46
9525;BME280;15940;48.734;9.112;2023-03-04T02:33:16;96998.81;;;-0.33;80.04
9525;BME280;15940;48.734;9.112;2023-03-04T02:35:43;96992.16;;;-0.45;81.10
9525;BME280;15940;48.734;9.112;2023-03-04T02:38:10;96988.19;;;-0.60;80.55
9525;BME280;15940;48.734;9.112;2023-03-04T02:40:39;97008.69;;;-0.61;81.04
9525;BME280;15940;48.734;9.112;2023-03-04T02:43:10;96994.41;;;-0.70;81.31
9525;BME280;15940;48.734;9.112;2023-03-04T02:45:42;97000.94;;;-0.75;81.78
9525;BME280;15940;48.734;9.112;2023-03-04T02:48:10;96999.06;;;-0.78;81.76
9525;BME280;15940;48.734;9.112;2023-03-04T02:50:41;97002.94;;;-0.86;82.69
9525;BME280;15940;48.734;9.112;2023-03-04T02:53:10;97000.25;;;-0.82;82.38
9525;BME280;15940;48.734;9.112;2023-03-04T02:55:37;97008.25;;;-0.82;82.91
9525;BME280;15940;48.734;9.112;2023-03-04T02:58:04;97007.91;;;-0.88;82.11
9525;BME280;15940;48.734;9.112;2023-03-04T03:00:31;97010.50;;;-0.81;83.08
9525;BME280;15940;48.734;9.112;2023-03-04T03:02:59;97002.44;;;-0.74;83.65
9525;BME280;15940;48.734;9.112;2023-03-04T03:05:29;96998.16;;;-0.68;81.12
9525;BME280;15940;48.734;9.112;2023-03-04T03:07:56;97004.72;;;-0.76;81.56
9525;BME280;15940;48.734;9.112;2023-03-04T03:10:24;96999.91;;;-0.84;82.03
9525;BME280;15940;48.734;9.112;2023-03-04T03:12:51;96997.91;;;-0.77;81.57
9525;BME280;15940;48.734;9.112;2023-03-04T03:15:18;97006.72;;;-0.83;81.94
9525;BME280;15940;48.734;9.112;2023-03-04T03:17:45;97005.50;;;-0.75;82.28
9525;BME280;15940;48.734;9.112;2023-03-04T03:20:14;96999.81;;;-0.77;82.06
9525;BME280;15940;48.734;9.112;2023-03-04T03:22:41;96998.75;;;-0.83;81.86
9525;BME280;15940;48.734;9.112;2023-03-04T03:25:10;97006.06;;;-0.91;81.81
9525;BME280;15940;48.734;9.112;2023-03-04T03:27:38;96999.78;;;-0.74;83.48
9525;BME280;15940;48.734;9.112;2023-03-04T03:30:08;96996.59;;;-0.92;81.84
9525;BME280;15940;48.734;9.112;2023-03-04T03:32:36;97005.72;;;-0.93;84.01
9525;BME280;15940;48.734;9.112;2023-03-04T03:35:04;97002.34;;;-0.97;82.71
9525;BME280;15940;48.734;9.112;2023-03-04T03:37:32;97003.94;;;-1.03;82.55
9525;BME280;15940;48.734;9.112;2023-03-04T03:39:59;96999.09;;;-1.12;82.89
9525;BME280;15940;48.734;9.112;2023-03-04T03:42:26;97002.91;;;-1.13;83.73
9525;BME280;15940;48.734;9.112;2023-03-04T03:44:53;97002.53;;;-1.15;83.72
9525;BME280;15940;48.734;9.112;2023-03-04T03:47:20;96997.63;;;-1.17;83.19
9525;BME280;15940;48.734;9.112;2023-03-04T03:49:47;97000.81;;;-1.29;84.08
9525;BME280;15940;48.734;9.112;2023-03-04T03:52:14;97000.75;;;-1.22;84.43
9525;BME280;15940;48.734;9.112;2023-03-04T03:54:42;96994.91;;;-1.09;84.60
9525;BME280;15940;48.734;9.112;2023-03-04T03:57:09;96989.03;;;-0.97;84.11
9525;BME280;15940;48.734;9.112;2023-03-04T03:59:36;97005.34;;;-0.95;83.17
9525;BME280;15940;48.734;9.112;2023-03-04T04:02:03;96991.94;;;-0.84;83.44
9525;BME280;15940;48.734;9.112;2023-03-04T04:04:30;96993.72;;;-0.78;83.46
9525;BME280;15940;48.734;9.112;2023-03-04T04:06:57;96988.97;;;-0.90;82.30
9525;BME280;15940;48.734;9.112;2023-03-04T04:09:24;96998.63;;;-0.73;82.38
9525;BME280;15940;48.734;9.112;2023-03-04T04:11:53;96995.22;;;-0.73;82.90
9525;BME280;15940;48.734;9.112;2023-03-04T04:14:19;96995.44;;;-0.91;81.96
9525;BME280;15940;48.734;9.112;2023-03-04T04:16:46;96995.09;;;-0.97;82.58
9525;BME280;15940;48.734;9.112;2023-03-04T04:19:17;96991.47;;;-1.10;83.28
9525;BME280;15940;48.734;9.112;2023-03-04T04:21:44;96997.78;;;-0.97;84.33
9525;BME280;15940;48.734;9.112;2023-03-04T04:24:12;96991.03;;;-1.05;82.83
9525;BME280;15940;48.734;9.112;2023-03-04T04:26:39;96999.41;;;-1.06;84.03
9525;BME280;15940;48.734;9.112;2023-03-04T04:29:08;96994.22;;;-1.17;83.29
9525;BME280;15940;48.734;9.112;2023-03-04T04:31:35;97001.38;;;-1.14;83.48
9525;BME280;15940;48.734;9.112;2023-03-04T04:34:02;96997.97;;;-1.11;84.98
9525;BME280;15940;48.734;9.112;2023-03-04T04:36:29;97002.16;;;-1.13;83.48
9525;BME280;15940;48.734;9.112;2023-03-04T04:38:56;96997.81;;;-1.00;83.83
9525;BME280;15940;48.734;9.112;2023-03-04T04:41:26;96991.75;;;-1.01;83.46
9525;BME280;15940;48.734;9.112;2023-03-04T04:43:54;96999.72;;;-1.01;82.79
9525;BME280;15940;48.734;9.112;2023-03-04T04:46:23;96994.28;;;-0.90;83.66
9525;BME280;15940;48.734;9.112;2023-03-04T04:48:49;97004.72;;;-1.06;82.21
9525;BME280;15940;48.734;9.112;2023-03-04T04:51:16;97011.25;;;-1.11;82.79
9525;BME280;15940;48.734;9.112;2023-03-04T04:53:43;97006.13;;;-1.29;83.22
9525;BME280;15940;48.734;9.112;2023-03-04T04:56:12;97004.06;;;-1.48;83.62
9525;BME280;15940;48.734;9.112;2023-03-04T04:58:40;97003.59;;;-1.43;84.99
9525;BME280;15940;48.734;9.112;2023-03-04T05:01:08;97009.72;;;-1.46;85.95
9525;BME280;15940;48.734;9.112;2023-03-04T05:03:37;97006.38;;;-1.54;84.38
9525;BME280;15940;48.734;9.112;2023-03-04T05:06:07;97000.38;;;-1.61;86.34
9525;BME280;15940;48.734;9.112;2023-03-04T05:08:35;97006.34;;;-1.50;84.32
9525;BME280;15940;48.734;9.112;2023-03-04T05:11:03;97007.50;;;-1.51;84.71
9525;BME280;15940;48.734;9.112;2023-03-04T05:13:30;97011.63;;;-1.47;85.90
9525;BME280;15940;48.734;9.112;2023-03-04T05:15:58;97002.31;;;-1.28;85.11
9525;BME280;15940;48.734;9.112;2023-03-04T05:18:26;97005.31;;;-1.22;84.14
9525;BME280;15940;48.734;9.112;2023-03-04T05:20:56;96995.97;;;-1.37;83.06
9525;BME280;15940;48.734;9.112;2023-03-04T05:23:24;96998.41;;;-1.54;84.95
9525;BME280;15940;48.734;9.112;2023-03-04T05:25:52;97007.97;;;-1.60;84.25
9525;BME280;15940;48.734;9.112;2023-03-04T05:28:19;97010.97;;;-1.58;84.77
9525;BME280;15940;48.734;9.112;2023-03-04T05:30:47;97005.34;;;-1.63;84.88
9525;BME280;15940;48.734;9.112;2023-03-04T05:33:16;97016.66;;;-1.56;85.56
9525;BME280;15940;48.734;9.112;2023-03-04T05:35:44;97006.72;;;-1.52;84.74
9525;BME280;15940;48.734;9.112;2023-03-04T05:38:16;97015.56;;;-1.62;86.46
9525;BME280;15940;48.734;9.112;2023-03-04T05:40:44;97015.19;;;-1.60;84.71
9525;BME280;15940;48.734;9.112;2023-03-04T05:43:11;97013.63;;;-1.58;85.12
9525;BME280;15940;48.734;9.112;2023-03-04T05:45:39;97021.72;;;-1.68;84.92
9525;BME280;15940;48.734;9.112;2023-03-04T05:48:06;97012.25;;;-1.69;86.35
9525;BME280;15940;48.734;9.112;2023-03-04T05:50:34;97011.28;;;-1.49;85.56
9525;BME280;15940;48.734;9.112;2023-03-04T05:53:01;97021.38;;;-1.36;83.53
9525;BME280;15940;48.734;9.112;2023-03-04T05:55:29;97024.31;;;-1.27;84.65
9525;BME280;15940;48.734;9.112;2023-03-04T05:57:57;97032.97;;;-1.20;83.03
9525;BME280;15940;48.734;9.112;2023-03-04T06:00:25;97019.66;;;-1.16;82.95
9525;BME280;15940;48.734;9.112;2023-03-04T06:02:52;97018.47;;;-1.11;83.50
9525;BME280;15940;48.734;9.112;2023-03-04T06:05:19;97031.09;;;-0.89;83.22
9525;BME280;15940;48.734;9.112;2023-03-04T06:07:47;97030.06;;;-0.95;81.86
9525;BME280;15940;48.734;9.112;2023-03-04T06:10:16;97036.22;;;-1.05;82.35
9525;BME280;15940;48.734;9.112;2023-03-04T06:12:44;97034.00;;;-1.10;82.46
9525;BME280;15940;48.734;9.112;2023-03-04T06:15:12;97046.16;;;-1.09;82.39
9525;BME280;15940;48.734;9.112;2023-03-04T06:17:41;97041.72;;;-1.19;83.63
9525;BME280;15940;48.734;9.112;2023-03-04T06:20:11;97035.47;;;-1.05;83.11
9525;BME280;15940;48.734;9.112;2023-03-04T06:22:38;97050.47;;;-0.88;81.81
9525;BME280;15940;48.734;9.112;2023-03-04T06:25:06;97041.13;;;-1.00;82.69
9525;BME280;15940;48.734;9.112;2023-03-04T06:27:33;97046.47;;;-1.03;82.48
9525;BME280;15940;48.734;9.112;2023-03-04T06:30:02;97052.28;;;-1.12;82.25
9525;BME280;15940;48.734;9.112;2023-03-04T06:32:29;97057.34;;;-0.91;83.22
9525;BME280;15940;48.734;9.112;2023-03-04T06:34:56;97052.44;;;-0.92;82.36
9525;BME280;15940;48.734;9.112;2023-03-04T06:37:23;97060.53;;;-1.03;82.04
9525;BME280;15940;48.734;9.112;2023-03-04T06:39:50;97070.31;;;-0.96;82.05
9525;BME280;15940;48.734;9.112;2023-03-04T06:42:17;97073.16;;;-1.14;82.42
9525;BME280;15940;48.734;9.112;2023-03-04T06:44:44;97078.09;;;-1.12;83.55
9525;BME280;15940;48.734;9.112;2023-03-04T06:47:12;97068.44;;;-0.99;82.37
9525;BME280;15940;48.734;9.112;2023-03-04T06:49:39;97076.75;;;-0.94;83.53
9525;BME280;15940;48.734;9.112;2023-03-04T06:52:07;97074.41;;;-0.88;82.50
9525;BME280;15940;48.734;9.112;2023-03-04T06:54:35;97074.59;;;-0.72;82.27
9525;BME280;15940;48.734;9.112;2023-03-04T06:57:02;97078.13;;;-0.82;81.82
9525;BME280;15940;48.734;9.112;2023-03-04T06:59:29;97085.44;;;-0.90;82.93
9525;BME280;15940;48.734;9.112;2023-03-04T07:01:56;97090.41;;;-0.92;82.46
9525;BME280;15940;48.734;9.112;2023-03-04T07:04:25;97093.47;;;-0.97;82.90
9525;BME280;15940;48.734;9.112;2023-03-04T07:06:52;97089.59;;;-0.89;83.78
9525;BME280;15940;48.734;9.112;2023-03-04T07:09:18;97085.50;;;-0.63;84.56
9525;BME280;15940;48.734;9.112;2023-03-04T07:11:45;97088.34;;;-0.46;83.84
9525;BME280;15940;48.734;9.112;2023-03-04T07:14:13;97094.44;;;-0.19;82.24
9525;BME280;15940;48.734;9.112;2023-03-04T07:16:40;97094.28;;;-0.35;81.78
9525;BME280;15940;48.734;9.112;2023-03-04T07:19:07;97095.53;;;-0.43;82.08
9525;BME280;15940;48.734;9.112;2023-03-04T07:21:35;97094.78;;;-0.44;82.06
9525;BME280;15940;48.734;9.112;2023-03-04T07:24:02;97100.00;;;-0.37;83.46
9525;BME280;15940;48.734;9.112;2023-03-04T07:26:29;97106.97;;;-0.19;81.88
9525;BME280;15940;48.734;9.112;2023-03-04T07:28:56;97100.97;;;-0.23;82.15
9525;BME280;15940;48.734;9.112;2023-03-04T07:31:27;97109.69;;;-0.23;81.87
9525;BME280;15940;48.734;9.112;2023-03-04T07:33:57;97112.63;;;-0.14;82.35
9525;BME280;15940;48.734;9.112;2023-03-04T07:36:25;97111.66;;;-0.27;81.01
9525;BME280;15940;48.734;9.112;2023-03-04T07:38:54;97108.59;;;-0.25;81.64
9525;BME280;15940;48.734;9.112;2023-03-04T07:41:23;97105.78;;;-0.15;81.84
9525;BME280;15940;48.734;9.112;2023-03-04T07:43:50;97117.28;;;0.06;81.47
9525;BME280;15940;48.734;9.112;2023-03-04T07:46:18;97113.78;;;0.12;81.04
9525;BME280;15940;48.734;9.112;2023-03-04T07:48:45;97115.53;;;0.22;80.97
9525;BME280;15940;48.734;9.112;2023-03-04T07:51:14;97110.13;;;0.03;80.63
9525;BME280;15940;48.734;9.112;2023-03-04T07:53:45;97118.63;;;-0.10;80.75
9525;BME280;15940;48.734;9.112;2023-03-04T07:56:16;97125.28;;;-0.21;81.42
9525;BME280;15940;48.734;9.112;2023-03-04T07:58:43;97122.16;;;-0.16;81.89
9525;BME280;15940;48.734;9.112;2023-03-04T08:01:12;97120.16;;;-0.09;81.29
9525;BME280;15940;48.734;9.112;2023-03-04T08:03:39;97132.84;;;0.11;80.56
9525;BME280;15940;48.734;9.112;2023-03-04T08:06:10;97134.44;;;0.32;80.83
9525;BME280;15940;48.734;9.112;2023-03-04T08:08:38;97126.34;;;0.39;79.61
9525;BME280;15940;48.734;9.112;2023-03-04T08:11:07;97129.19;;;0.24;78.63
9525;BME280;15940;48.734;9.112;2023-03-04T08:13:35;97141.53;;;0.15;78.58
9525;BME280;15940;48.734;9.112;2023-03-04T08:16:04;97129.09;;;0.05;81.05
9525;BME280;15940;48.734;9.112;2023-03-04T08:18:31;97130.56;;;0.09;81.76
9525;BME280;15940;48.734;9.112;2023-03-04T08:20:58;97143.63;;;0.27;81.47
9525;BME280;15940;48.734;9.112;2023-03-04T08:23:25;97137.09;;;0.32;81.77
9525;BME280;15940;48.734;9.112;2023-03-04T08:25:52;97141.78;;;0.47;80.23
9525;BME280;15940;48.734;9.112;2023-03-04T08:28:19;97141.16;;;0.40;79.98
9525;BME280;15940;48.734;9.112;2023-03-04T08:30:53;97149.41;;;0.22;80.37
9525;BME280;15940;48.734;9.112;2023-03-04T08:33:21;97144.03;;;0.25;81.14
9525;BME280;15940;48.734;9.112;2023-03-04T08:35:48;97154.03;;;0.18;80.66
9525;BME280;15940;48.734;9.112;2023-03-04T08:38:15;97146.03;;;0.18;82.35
9525;BME280;15940;48.734;9.112;2023-03-04T08:40:41;97152.59;;;0.37;81.28
9525;BME280;15940;48.734;9.112;2023-03-04T08:43:08;97156.78;;;0.38;80.51
9525;BME280;15940;48.734;9.112;2023-03-04T08:45:35;97157.16;;;0.40;80.19
9525;BME280;15940;48.734;9.112;2023-03-04T08:48:04;97160.69;;;0.56;81.19
9525;BME280;15940;48.734;9.112;2023-03-04T08:50:31;97160.22;;;0.85;79.84
9525;BME280;15940;48.734;9.112;2023-03-04T08:52:58;97157.97;;;0.83;78.00
9525;BME280;15940;48.734;9.112;2023-03-04T08:55:25;97161.03;;;0.82;78.71
9525;BME280;15940;48.734;9.112;2023-03-04T08:57:52;97159.00;;;0.66;78.60
9525;BME280;15940;48.734;9.112;2023-03-04T09:00:19;97157.09;;;0.43;78.65
9525;BME280;15940;48.734;9.112;2023-03-04T09:02:47;97165.00;;;0.23;79.10
9525;BME280;15940;48.734;9.112;2023-03-04T09:05:15;97161.00;;;0.08;80.54
9525;BME280;15940;48.734;9.112;2023-03-04T09:07:42;97162.13;;;0.11;81.16
9525;BME280;15940;48.734;9.112;2023-03-04T09:10:10;97167.66;;;0.23;80.65
9525;BME280;15940;48.734;9.112;2023-03-04T09:12:37;97163.31;;;0.33;81.19
9525;BME280;15940;48.734;9.112;2023-03-04T09:15:06;97161.31;;;0.41;81.39
9525;BME280;15940;48.734;9.112;2023-03-04T09:17:33;97169.06;;;0.32;78.79
9525;BME280;15940;48.734;9.112;2023-03-04T09:20:00;97173.47;;;0.15;80.28
9525;BME280;15940;48.734;9.112;2023-03-04T09:22:28;97178.50;;;0.36;80.42
9525;BME280;15940;48.734;9.112;2023-03-04T09:24:55;97171.75;;;0.55;80.96
9525;BME280;15940;48.734;9.112;2023-03-04T09:27:22;97172.47;;;0.59;78.85
9525;BME280;15940;48.734;9.112;2023-03-04T09:29:49;97176.31;;;0.54;78.22
9525;BME280;15940;48.734;9.112;2023-03-04T09:32:15;97175.22;;;0.52;78.78
9525;BME280;15940;48.734;9.112;2023-03-04T09:34:42;97158.50;;;0.51;80.00
9525;BME280;15940;48.734;9.112;2023-03-04T09:37:09;97167.16;;;0.55;79.28
9525;BME280;15940;48.734;9.112;2023-03-04T09:39:38;97173.63;;;0.58;78.56
9525;BME280;15940;48.734;9.112;2023-03-04T09:42:09;97170.06;;;0.65;78.78
9525;BME280;15940;48.734;9.112;2023-03-04T09:44:42;97172.63;;;0.72;77.56
9525;BME280;15940;48.734;9.112;2023-03-04T09:47:14;97167.31;;;0.72;77.20
9525;BME280;15940;48.734;9.112;2023-03-04T09:49:47;97164.66;;;0.95;76.68
9525;BME280;15940;48.734;9.112;2023-03-04T09:52:27;97171.41;;;1.00;75.46
9525;BME280;15940;48.734;9.112;2023-03-04T09:55:04;97164.88;;;1.04;75.67
9525;BME280;15940;48.734;9.112;2023-03-04T09:57:46;97157.03;;;1.37;75.86
9525;BME280;15940;48.734;9.112;2023-03-04T10:00:17;97169.88;;;1.42;73.44
9525;BME280;15940;48.734;9.112;2023-03-04T10:03:04;97165.22;;;1.66;73.84
9525;BME280;15940;48.734;9.112;2023-03-04T10:05:41;97168.38;;;1.41;72.66
9525;BME280;15940;48.734;9.112;2023-03-04T10:08:33;97168.94;;;1.52;72.62
9525;BME280;15940;48.734;9.112;2023-03-04T10:11:10;97168.25;;;1.68;73.51
9525;BME280;15940;48.734;9.112;2023-03-04T10:13:49;97162.66;;;1.98;73.35
9525;BME280;15940;48.734;9.112;2023-03-04T10:16:23;97156.25;;;2.12;71.53
9525;BME280;15940;48.734;9.112;2023-03-04T10:18:55;97165.94;;;2.06;71.76
9525;BME280;15940;48.734;9.112;2023-03-04T10:21:31;97164.94;;;2.16;70.83
9525;BME280;15940;48.734;9.112;2023-03-04T10:24:04;97166.66;;;2.43;70.38
9525;BME280;15940;48.734;9.112;2023-03-04T10:26:35;97160.41;;;2.66;69.70
9525;BME280;15940;48.734;9.112;2023-03-04T10:29:03;97149.72;;;2.66;67.57
9525;BME280;15940;48.734;9.112;2023-03-04T10:31:34;97143.44;;;2.56;67.50
9525;BME280;15940;48.734;9.112;2023-03-04T10:34:02;97148.50;;;2.83;69.13
9525;BME280;15940;48.734;9.112;2023-03-04T10:36:41;97147.78;;;3.11;65.62
9525;BME280;15940;48.734;9.112;2023-03-04T10:39:17;97145.31;;;3.33;67.34
9525;BME280;15940;48.734;9.112;2023-03-04T10:41:58;97151.19;;;3.28;66.74
9525;BME280;15940;48.734;9.112;2023-03-04T10:44:26;97141.47;;;3.34;65.08
9525;BME280;15940;48.734;9.112;2023-03-04T10:46:55;97144.91;;;3.48;65.64
9525;BME280;15940;48.734;9.112;2023-03-04T10:49:24;97146.81;;;3.34;64.37
9525;BME280;15940;48.734;9.112;2023-03-04T10:51:54;97145.06;;;3.28;65.17
9525;BME280;15940;48.734;9.112;2023-03-04T10:54:28;97147.41;;;2.97;65.31
9525;BME280;15940;48.734;9.112;2023-03-04T10:57:11;97139.16;;;2.75;68.47
9525;BME280;15940;48.734;9.112;2023-03-04T10:59:43;97131.81;;;2.79;66.44
9525;BME280;15940;48.734;9.112;2023-03-04T11:02:23;97124.63;;;2.76;66.99
9525;BME280;15940;48.734;9.112;2023-03-04T11:04:55;97128.38;;;2.78;67.07
9525;BME280;15940;48.734;9.112;2023-03-04T11:07:25;97135.81;;;2.71;65.90
9525;BME280;15940;48.734;9.112;2023-03-04T11:09:52;97133.72;;;2.62;67.94
9525;BME280;15940;48.734;9.112;2023-03-04T11:12:31;97132.44;;;2.83;67.38
9525;BME280;15940;48.734;9.112;2023-03-04T11:14:59;97130.34;;;2.91;66.44
9525;BME280;15940;48.734;9.112;2023-03-04T11:17:30;97126.72;;;2.68;66.55
9525;BME280;15940;48.734;9.112;2023-03-04T11:20:13;97127.22;;;2.63;66.57
9525;BME280;15940;48.734;9.112;2023-03-04T11:22:45;97118.19;;;2.57;66.37
9525;BME280;15940;48.734;9.112;2023-03-04T11:25:24;97116.09;;;2.65;66.83
9525;BME280;15940;48.734;9.112;2023-03-04T11:27:56;97115.31;;;2.80;66.90
9525;BME280;15940;48.734;9.112;2023-03-04T11:30:33;97120.50;;;2.88;66.30
9525;BME280;15940;48.734;9.112;2023-03-04T11:33:15;97112.50;;;2.71;66.32
9525;BME280;15940;48.734;9.112;2023-03-04T11:35:53;97111.31;;;2.72;66.96
9525;BME280;15940;48.734;9.112;2023-03-04T11:38:30;97113.81;;;2.79;66.77
9525;BME280;15940;48.734;9.112;2023-03-04T11:41:03;97113.56;;;2.74;67.69
9525;BME280;15940;48.734;9.112;2023-03-04T11:43:35;97116.34;;;2.70;68.06
9525;BME280;15940;48.734;9.112;2023-03-04T11:46:32;97114.59;;;2.64;66.37
9525;BME280;15940;48.734;9.112;2023-03-04T11:49:52;97102.47;;;2.75;66.09
9525;BME280;15940;48.734;9.112;2023-03-04T11:52:38;97109.59;;;2.49;67.37
9525;BME280;15940;48.734;9.112;2023-03-04T11:55:33;97100.03;;;2.65;67.00
9525;BME280;15940;48.734;9.112;2023-03-04T12:01:09;97091.38;;;3.06;66.21
9525;BME280;15940;48.734;9.112;2023-03-04T12:04:22;97090.81;;;2.82;65.36
9525;BME280;15940;48.734;9.112;2023-03-04T12:07:05;97082.88;;;2.95;64.52
9525;BME280;15940;48.734;9.112;2023-03-04T12:09:42;97091.78;;;3.04;64.30
9525;BME280;15940;48.734;9.112;2023-03-04T12:12:33;97083.34;;;3.06;65.50
9525;BME280;15940;48.734;9.112;2023-03-04T12:15:15;97078.41;;;3.04;63.72
9525;BME280;15940;48.734;9.112;2023-03-04T12:18:09;97071.34;;;3.10;65.39
9525;BME280;15940;48.734;9.112;2023-03-04T12:20:58;97059.69;;;2.75;65.74
9525;BME280;15940;48.734;9.112;2023-03-04T12:24:02;97067.16;;;2.80;64.83
9525;BME280;15940;48.734;9.112;2023-03-04T12:26:39;97062.97;;;2.96;65.06
9525;BME280;15940;48.734;9.112;2023-03-04T12:29:14;97055.28;;;3.10;65.64
9525;BME280;15940;48.734;9.112;2023-03-04T12:31:51;97056.09;;;3.36;64.62
9525;BME280;15940;48.734;9.112;2023-03-04T12:35:00;97057.09;;;3.42;63.39
9525;BME280;15940;48.734;9.112;2023-03-04T12:37:52;97053.31;;;3.27;63.04
9525;BME280;15940;48.734;9.112;2023-03-04T12:40:37;97035.19;;;3.19;63.45
9525;BME280;15940;48.734;9.112;2023-03-04T12:43:20;97041.53;;;3.25;62.85
9525;BME280;15940;48.734;9.112;2023-03-04T12:46:03;97035.06;;;3.09;63.54
9525;BME280;15940;48.734;9.112;2023-03-04T12:48:38;97033.38;;;3.28;64.78
9525;BME280;15940;48.734;9.112;2023-03-04T12:51:21;97035.78;;;3.64;63.07
9525;BME280;15940;48.734;9.112;2023-03-04T12:54:03;97029.03;;;3.72;61.41
9525;BME280;15940;48.734;9.112;2023-03-04T12:56:38;97022.47;;;3.48;62.95
9525;BME280;15940;48.734;9.112;2023-03-04T12:59:14;97021.06;;;3.31;64.29
9525;BME280;15940;48.734;9.112;2023-03-04T13:01:49;97022.34;;;3.13;62.68
9525;BME280;15940;48.734;9.112;2023-03-04T13:04:22;97018.13;;;3.00;64.11
9525;BME280;15940;48.734;9.112;2023-03-04T13:07:10;97022.75;;;3.12;63.68
9525;BME280;15940;48.734;9.112;2023-03-04T13:09:46;97017.81;;;3.10;64.85
9525;BME280;15940;48.734;9.112;2023-03-04T13:12:19;97019.00;;;3.09;65.72
9525;BME280;15940;48.734;9.112;2023-03-04T13:15:26;97027.78;;;3.10;64.88
9525;BME280;15940;48.734;9.112;2023-03-04T13:17:55;97016.34;;;3.22;64.77
9525;BME280;15940;48.734;9.112;2023-03-04T13:20:33;97020.00;;;3.41;64.85
9525;BME280;15940;48.734;9.112;2023-03-04T13:23:03;97019.41;;;3.62;63.56
9525;BME280;15940;48.734;9.112;2023-03-04T13:25:46;97017.66;;;3.68;64.27
9525;BME280;15940;48.734;9.112;2023-03-04T13:28:25;97014.13;;;3.46;63.80
9525;BME280;15940;48.734;9.112;2023-03-04T13:31:22;97018.84;;;3.42;64.85
9525;BME280;15940;48.734;9.112;2023-03-04T13:34:00;97023.50;;;3.12;64.54
9525;BME280;15940;48.734;9.112;2023-03-04T13:36:56;97013.09;;;3.02;65.04
9525;BME280;15940;48.734;9.112;2023-03-04T13:39:33;97026.63;;;2.82;66.81
9525;BME280;15940;48.734;9.112;2023-03-04T13:42:03;97016.31;;;2.68;66.02